createdAt,value
2018-01-11T00:01:18.244Z,8.87
2018-01-11T00:03:46.596Z,8.27
2018-01-11T00:06:14.864Z,7.55
2018-01-11T00:08:43.176Z,8.95
2018-01-11T00:11:11.472Z,10.55
2018-01-11T00:13:39.021Z,7.23
2018-01-11T00:16:07.312Z,11.95
2018-01-11T00:18:35.628Z,7.98
2018-01-11T00:21:03.923Z,7.78
2018-01-11T00:23:32.248Z,8.70
2018-01-11T00:26:00.554Z,9.23
2018-01-11T00:28:28.873Z,12.12
2018-01-11T00:30:57.156Z,11.00
2018-01-11T00:33:25.468Z,8.45
2018-01-11T00:35:53.759Z,8.87
2018-01-11T00:38:22.076Z,8.00
2018-01-11T00:40:49.596Z,10.03
2018-01-11T00:43:17.908Z,7.62
2018-01-11T00:45:46.196Z,10.07
2018-01-11T00:48:14.504Z,8.15
2018-01-11T00:50:42.792Z,9.92
2018-01-11T00:53:11.109Z,7.18
2018-01-11T00:55:39.394Z,7.98
2018-01-11T00:58:07.709Z,8.57
2018-01-11T01:00:36.002Z,9.80
2018-01-11T01:03:04.292Z,12.53
2018-01-11T01:05:32.609Z,7.93
2018-01-11T01:08:00.905Z,9.27
2018-01-11T01:10:29.216Z,8.22
2018-01-11T01:12:56.751Z,8.98
2018-01-11T01:15:25.063Z,11.32
2018-01-11T01:17:53.348Z,9.78
2018-01-11T01:20:21.660Z,9.97
2018-01-11T01:22:49.952Z,13.85
2018-01-11T01:25:18.268Z,9.28
2018-01-11T01:27:46.547Z,9.17
2018-01-11T01:30:14.870Z,13.63
2018-01-11T01:32:43.152Z,9.67
2018-01-11T01:35:11.470Z,8.62
2018-01-11T01:37:39.752Z,10.17
2018-01-11T01:40:08.067Z,8.32
2018-01-11T01:42:36.352Z,8.15
2018-01-11T01:45:04.668Z,10.33
2018-01-11T01:47:32.956Z,10.48
2018-01-11T01:50:01.268Z,11.28
2018-01-11T01:52:28.792Z,11.18
2018-01-11T01:54:57.112Z,9.23
2018-01-11T01:57:25.401Z,8.22
2018-01-11T01:59:53.720Z,9.27
2018-01-11T02:02:22.004Z,7.65
2018-01-11T02:04:50.337Z,8.37
2018-01-11T02:07:18.624Z,9.28
2018-01-11T02:09:46.940Z,10.27
2018-01-11T02:12:15.216Z,9.88
2018-01-11T02:14:43.537Z,7.70
2018-01-11T02:17:11.832Z,15.65
2018-01-11T02:19:40.156Z,27.68
2018-01-11T02:22:08.453Z,106.22
2018-01-11T02:24:36.777Z,25.30
2018-01-11T02:27:05.077Z,72.67
2018-01-11T02:29:33.396Z,60.73
2018-01-11T02:32:01.686Z,15.05
2018-01-11T02:34:30.009Z,53.53
2018-01-11T02:36:58.316Z,42.32
2018-01-11T02:39:26.631Z,16.92
2018-01-11T02:41:54.924Z,12.15
2018-01-11T02:44:23.248Z,10.48
2018-01-11T02:46:51.536Z,10.57
2018-01-11T02:49:19.823Z,8.05
2018-01-11T02:51:48.144Z,10.58
2018-01-11T02:54:16.428Z,7.88
2018-01-11T02:56:44.746Z,15.15
2018-01-11T02:59:12.284Z,12.10
2018-01-11T03:01:39.827Z,9.32
2018-01-11T03:04:08.100Z,8.15
2018-01-11T03:06:36.407Z,7.13
2018-01-11T03:09:04.683Z,8.88
2018-01-11T03:11:32.987Z,5.75
2018-01-11T03:14:01.272Z,10.55
2018-01-11T03:16:29.583Z,8.20
2018-01-11T03:18:57.881Z,7.35
2018-01-11T03:21:26.200Z,8.62
2018-01-11T03:23:54.488Z,5.88
2018-01-11T03:26:22.810Z,7.58
2018-01-11T03:28:52.084Z,8.35
2018-01-11T03:31:20.401Z,8.10
2018-01-11T03:33:48.683Z,6.80
2018-01-11T03:36:16.994Z,7.47
2018-01-11T03:38:45.280Z,7.83
2018-01-11T03:41:13.584Z,8.42
2018-01-11T03:43:41.875Z,10.62
2018-01-11T03:46:10.196Z,7.40
2018-01-11T03:48:38.475Z,6.88
2018-01-11T03:51:06.784Z,9.12
2018-01-11T03:53:35.067Z,8.85
2018-01-11T03:56:03.380Z,6.13
2018-01-11T03:58:31.664Z,7.78
2018-01-11T04:00:59.977Z,7.38
2018-01-11T04:03:28.265Z,7.58
2018-01-11T04:05:55.816Z,8.07
2018-01-11T04:08:24.105Z,8.50
2018-01-11T04:10:52.394Z,7.62
2018-01-11T04:13:20.717Z,7.38
2018-01-11T04:15:49.011Z,6.43
2018-01-11T04:18:17.320Z,9.93
2018-01-11T04:20:45.608Z,7.38
2018-01-11T04:23:13.155Z,7.00
2018-01-11T04:25:41.435Z,6.58
2018-01-11T04:28:09.748Z,7.90
2018-01-11T04:30:38.028Z,8.03
2018-01-11T04:33:06.335Z,7.97
2018-01-11T04:35:34.628Z,10.17
2018-01-11T04:38:02.942Z,6.92
2018-01-11T04:40:31.232Z,6.87
2018-01-11T04:42:59.540Z,6.70
2018-01-11T04:45:27.828Z,8.88
2018-01-11T04:47:56.144Z,6.70
2018-01-11T04:50:24.428Z,8.65
2018-01-11T04:52:51.975Z,7.20
2018-01-11T04:55:20.261Z,7.23
2018-01-11T04:57:48.896Z,7.43
2018-01-11T05:00:17.175Z,6.82
2018-01-11T05:02:45.487Z,9.53
2018-01-11T05:05:13.768Z,8.65
2018-01-11T05:07:42.081Z,7.87
2018-01-11T05:10:10.360Z,8.72
2018-01-11T05:12:38.671Z,7.50
2018-01-11T05:15:06.952Z,8.85
2018-01-11T05:17:35.272Z,8.95
2018-01-11T05:22:25.956Z,8.52
2018-01-11T05:24:54.264Z,8.35
2018-01-11T05:27:22.600Z,7.77
2018-01-11T05:29:50.909Z,9.20
2018-01-11T05:32:19.250Z,8.52
2018-01-11T05:34:47.562Z,8.55
2018-01-11T05:37:15.896Z,9.23
2018-01-11T05:39:44.206Z,9.22
2018-01-11T05:42:12.548Z,9.52
2018-01-11T05:44:40.858Z,9.32
2018-01-11T05:47:09.197Z,8.18
2018-01-11T05:49:37.542Z,11.40
2018-01-11T05:52:05.883Z,9.50
2018-01-11T05:54:34.210Z,8.42
2018-01-11T05:57:02.548Z,9.88
2018-01-11T05:59:30.864Z,8.75
2018-01-11T06:01:59.207Z,9.05
2018-01-11T06:04:27.512Z,8.32
2018-01-11T06:06:55.828Z,10.87
2018-01-11T06:09:24.168Z,11.72
2018-01-11T06:11:52.487Z,13.07
2018-01-11T06:14:20.827Z,12.43
2018-01-11T06:16:49.137Z,9.95
2018-01-11T06:19:17.478Z,9.58
2018-01-11T06:21:45.785Z,11.50
2018-01-11T06:24:14.124Z,11.58
2018-01-11T06:26:42.443Z,14.02
2018-01-11T06:29:10.788Z,13.32
2018-01-11T06:31:39.100Z,10.17
2018-01-11T06:34:07.441Z,9.85
2018-01-11T06:36:35.752Z,8.82
2018-01-11T06:39:04.110Z,11.27
2018-01-11T06:41:32.406Z,9.48
2018-01-11T06:44:00.754Z,12.33
2018-01-11T06:46:29.055Z,12.93
2018-01-11T06:48:57.392Z,12.27
2018-01-11T06:51:25.707Z,10.33
2018-01-11T06:53:54.050Z,12.00
2018-01-11T06:56:22.383Z,11.80
2018-01-11T06:58:50.714Z,11.65
2018-01-11T07:01:19.056Z,13.98
2018-01-11T07:03:47.398Z,11.03
2018-01-11T07:06:15.708Z,13.00
2018-01-11T07:08:44.047Z,14.43
2018-01-11T07:11:12.367Z,14.85
2018-01-11T07:13:40.717Z,12.68
2018-01-11T07:16:09.031Z,14.52
2018-01-11T07:18:37.378Z,14.57
2018-01-11T07:21:05.687Z,11.63
2018-01-11T07:23:34.023Z,12.32
2018-01-11T07:26:02.330Z,14.75
2018-01-11T07:28:30.678Z,11.13
2018-01-11T07:30:58.990Z,11.62
2018-01-11T07:33:27.327Z,15.22
2018-01-11T07:35:55.634Z,12.72
2018-01-11T07:38:23.975Z,10.68
2018-01-11T07:40:52.292Z,13.77
2018-01-11T07:43:20.641Z,15.83
2018-01-11T07:45:48.959Z,13.70
2018-01-11T07:48:17.295Z,15.32
2018-01-11T07:50:45.608Z,12.90
2018-01-11T07:53:13.946Z,21.13
2018-01-11T07:55:42.265Z,16.38
2018-01-11T07:58:10.602Z,26.28
2018-01-11T08:00:38.907Z,24.38
2018-01-11T08:03:07.266Z,22.83
2018-01-11T08:05:35.583Z,21.83
2018-01-11T08:08:03.896Z,16.07
2018-01-11T08:10:32.239Z,22.48
2018-01-11T08:13:00.560Z,19.73
2018-01-11T08:15:28.902Z,16.80
2018-01-11T08:17:57.218Z,16.02
2018-01-11T08:20:25.564Z,15.77
2018-01-11T08:22:53.892Z,15.88
2018-01-11T08:25:22.242Z,17.43
2018-01-11T08:27:50.747Z,22.48
2018-01-11T08:30:19.089Z,27.80
2018-01-11T08:32:47.436Z,31.45
2018-01-11T08:35:15.839Z,17.68
2018-01-11T08:37:44.206Z,23.62
2018-01-11T08:40:12.742Z,24.48
2018-01-11T08:42:41.166Z,22.02
2018-01-11T08:45:09.697Z,26.57
2018-01-11T08:50:10.693Z,41.13
2018-01-11T08:52:38.984Z,46.93
2018-01-11T08:55:07.304Z,37.98
2018-01-11T08:57:35.603Z,40.02
2018-01-11T09:00:03.929Z,31.77
2018-01-11T09:02:32.228Z,35.70
2018-01-11T09:05:00.544Z,24.90
2018-01-11T09:07:28.836Z,20.07
2018-01-11T09:09:57.158Z,22.02
2018-01-11T09:12:25.455Z,20.62
2018-01-11T09:14:53.784Z,19.73
2018-01-11T09:17:22.075Z,20.80
2018-01-11T09:19:50.396Z,38.83
2018-01-11T09:22:18.693Z,33.40
2018-01-11T09:24:46.244Z,37.97
2018-01-11T09:27:14.539Z,29.85
2018-01-11T09:29:42.864Z,30.78
2018-01-11T09:32:11.159Z,28.02
2018-01-11T09:34:39.480Z,23.23
2018-01-11T09:37:07.782Z,38.55
2018-01-11T09:39:36.104Z,30.70
2018-01-11T09:42:04.401Z,34.43
2018-01-11T09:44:32.724Z,29.78
2018-01-11T09:47:01.023Z,29.27
2018-01-11T09:49:29.348Z,20.75
2018-01-11T09:51:57.644Z,20.62
2018-01-11T09:54:25.964Z,22.12
2018-01-11T09:56:54.270Z,18.75
2018-01-11T09:59:22.597Z,24.37
2018-01-11T10:01:50.893Z,19.42
2018-01-11T10:04:19.228Z,19.07
2018-01-11T10:06:47.531Z,23.70
2018-01-11T10:09:15.876Z,15.60
2018-01-11T10:11:44.172Z,14.63
2018-01-11T10:14:12.464Z,15.77
2018-01-11T10:16:40.788Z,15.17
2018-01-11T10:19:09.088Z,14.87
2018-01-11T10:21:37.420Z,14.83
2018-01-11T10:24:05.729Z,14.45
2018-01-11T10:26:34.053Z,19.55
2018-01-11T10:29:02.347Z,18.30
2018-01-11T10:31:30.668Z,17.82
2018-01-11T10:33:58.203Z,14.70
2018-01-11T10:36:26.532Z,15.52
2018-01-11T10:38:54.830Z,14.47
2018-01-11T10:41:23.156Z,16.05
2018-01-11T10:43:51.459Z,13.94
2018-01-11T10:46:19.769Z,14.00
2018-01-11T10:48:48.057Z,13.02
2018-01-11T10:51:16.384Z,11.90
2018-01-11T10:53:44.680Z,11.66
2018-01-11T10:56:13.003Z,11.93
2018-01-11T10:58:41.308Z,12.13
2018-01-11T11:01:15.337Z,15.30
2018-01-11T11:03:43.640Z,20.32
2018-01-11T11:06:11.965Z,19.55
2018-01-11T11:08:40.269Z,19.15
2018-01-11T11:11:08.600Z,24.52
2018-01-11T11:13:36.888Z,21.32
2018-01-11T11:16:05.212Z,12.47
2018-01-11T11:18:33.509Z,11.93
2018-01-11T11:21:01.818Z,8.32
2018-01-11T11:23:30.115Z,8.48
2018-01-11T11:25:58.439Z,8.17
2018-01-11T11:28:26.728Z,9.32
2018-01-11T11:30:55.056Z,7.95
2018-01-11T11:33:22.584Z,7.22
2018-01-11T11:35:50.904Z,8.70
2018-01-11T11:38:19.187Z,7.22
2018-01-11T11:40:47.509Z,10.48
2018-01-11T11:43:15.856Z,6.90
2018-01-11T11:45:44.185Z,7.56
2018-01-11T11:48:12.473Z,10.24
2018-01-11T11:50:40.830Z,7.82
2018-01-11T11:53:09.105Z,8.14
2018-01-11T11:55:37.420Z,8.26
2018-01-11T11:58:05.705Z,8.30
2018-01-11T12:00:34.033Z,6.50
2018-01-11T12:03:02.328Z,5.74
2018-01-11T12:05:30.655Z,6.56
2018-01-11T12:07:58.964Z,6.60
2018-01-11T12:10:27.300Z,7.54
2018-01-11T12:12:55.594Z,7.76
2018-01-11T12:15:23.888Z,8.66
2018-01-11T12:17:52.208Z,6.76
2018-01-11T12:20:20.495Z,6.00
2018-01-11T12:22:48.816Z,8.00
2018-01-11T12:25:17.110Z,6.68
2018-01-11T12:27:45.424Z,6.50
2018-01-11T12:30:13.716Z,7.22
2018-01-11T12:32:42.036Z,8.96
2018-01-11T12:35:10.333Z,8.32
2018-01-11T12:37:38.651Z,7.36
2018-01-11T12:40:06.936Z,5.86
2018-01-11T12:42:35.262Z,6.00
2018-01-11T12:45:03.566Z,7.28
2018-01-11T12:47:31.908Z,9.48
2018-01-11T12:50:00.204Z,6.64
2018-01-11T12:52:27.751Z,8.04
2018-01-11T12:54:56.038Z,6.02
2018-01-11T12:57:24.351Z,7.62
2018-01-11T12:59:52.643Z,6.80
2018-01-11T13:02:20.967Z,6.24
2018-01-11T13:04:49.268Z,6.76
2018-01-11T13:07:17.596Z,9.02
2018-01-11T13:09:45.893Z,6.42
2018-01-11T13:12:14.213Z,6.22
2018-01-11T13:14:42.503Z,8.60
2018-01-11T13:17:10.820Z,7.10
2018-01-11T13:19:39.124Z,6.48
2018-01-11T13:22:07.440Z,6.18
2018-01-11T13:24:35.728Z,7.84
2018-01-11T13:27:04.035Z,6.42
2018-01-11T13:29:32.325Z,5.18
2018-01-11T13:32:00.648Z,6.50
2018-01-11T13:34:28.931Z,5.90
2018-01-11T13:36:57.252Z,6.62
2018-01-11T13:39:25.549Z,7.44
2018-01-11T13:41:53.872Z,5.62
2018-01-11T13:44:22.160Z,5.10
2018-01-11T13:46:50.473Z,6.00
2018-01-11T13:49:18.764Z,7.06
2018-01-11T13:51:47.093Z,7.63
2018-01-11T13:54:15.388Z,8.93
2018-01-11T13:56:43.716Z,6.87
2018-01-11T13:59:12.012Z,6.18
2018-01-11T14:01:40.331Z,8.88
2018-01-11T14:04:08.615Z,7.14
2018-01-11T14:06:36.936Z,8.47
2018-01-11T14:09:05.235Z,8.00
2018-01-11T14:11:33.568Z,7.90
2018-01-11T14:14:01.126Z,6.66
2018-01-11T14:16:29.433Z,8.55
2018-01-11T14:18:57.760Z,22.26
2018-01-11T14:21:26.060Z,11.30
2018-01-11T14:23:54.383Z,12.40
2018-01-11T14:26:22.676Z,10.00
2018-01-11T14:28:50.996Z,11.24
2018-01-11T14:31:19.288Z,10.30
2018-01-11T14:33:47.604Z,9.62
2018-01-11T14:36:15.910Z,18.18
2018-01-11T14:38:44.235Z,15.83
2018-01-11T14:41:12.527Z,8.05
2018-01-11T14:43:40.844Z,8.57
2018-01-11T14:46:09.147Z,7.72
2018-01-11T14:48:37.476Z,7.60
2018-01-11T14:51:05.776Z,11.66
2018-01-11T14:53:34.093Z,5.30
2018-01-11T14:56:02.392Z,6.06
2018-01-11T14:58:30.716Z,9.08
2018-01-11T15:00:59.012Z,7.22
2018-01-11T15:03:27.324Z,8.48
2018-01-11T15:05:55.617Z,7.48
2018-01-11T15:08:23.935Z,8.92
2018-01-11T15:10:52.234Z,12.48
2018-01-11T15:13:20.565Z,14.12
2018-01-11T15:15:48.873Z,12.04
2018-01-11T15:18:17.192Z,9.82
2018-01-11T15:20:45.484Z,15.28
2018-01-11T15:23:13.804Z,13.52
2018-01-11T15:25:42.093Z,9.76
2018-01-11T15:28:10.417Z,9.42
2018-01-11T15:30:37.944Z,7.63
2018-01-11T15:33:06.264Z,8.22
2018-01-11T15:35:34.560Z,9.65
2018-01-11T15:38:02.888Z,17.67
2018-01-11T15:40:31.183Z,12.04
2018-01-11T15:42:59.545Z,15.57
2018-01-11T15:45:27.825Z,25.85
2018-01-11T15:47:56.159Z,23.03
2018-01-11T15:50:24.455Z,32.03
2018-01-11T15:52:52.781Z,14.38
2018-01-11T15:55:20.320Z,13.78
2018-01-11T15:57:48.650Z,13.65
2018-01-11T16:00:16.957Z,11.96
2018-01-11T16:02:45.287Z,10.53
2018-01-11T16:05:13.580Z,9.67
2018-01-11T16:07:41.936Z,12.83
2018-01-11T16:10:10.243Z,10.38
2018-01-11T16:12:38.542Z,13.60
2018-01-11T16:15:06.864Z,15.40
2018-01-11T16:17:34.426Z,12.95
2018-01-11T16:20:02.734Z,12.32
2018-01-11T16:22:31.033Z,20.48
2018-01-11T16:24:58.609Z,16.77
2018-01-11T16:27:26.907Z,16.43
2018-01-11T16:29:55.237Z,19.78
2018-01-11T16:32:23.541Z,16.33
2018-01-11T16:34:51.873Z,22.45
2018-01-11T16:37:19.400Z,19.58
2018-01-11T16:39:47.724Z,17.43
2018-01-11T16:42:16.024Z,15.42
2018-01-11T16:44:44.345Z,16.12
2018-01-11T16:47:12.644Z,14.62
2018-01-11T16:49:40.964Z,13.65
2018-01-11T16:52:09.265Z,15.85
2018-01-11T16:54:37.600Z,13.07
2018-01-11T16:57:05.895Z,15.25
2018-01-11T16:59:34.216Z,14.08
2018-01-11T17:02:02.515Z,17.35
2018-01-11T17:04:30.837Z,14.35
2018-01-11T17:06:58.376Z,16.27
2018-01-11T17:09:26.705Z,11.87
2018-01-11T17:11:55.005Z,10.20
2018-01-11T17:14:23.328Z,13.22
2018-01-11T17:16:51.631Z,15.43
2018-01-11T17:19:19.953Z,9.43
2018-01-11T17:21:48.252Z,10.73
2018-01-11T17:24:16.568Z,12.18
2018-01-11T17:26:44.868Z,14.52
2018-01-11T17:29:13.188Z,12.98
2018-01-11T17:31:41.476Z,15.53
2018-01-11T17:34:09.804Z,18.25
2018-01-11T17:36:38.114Z,17.02
2018-01-11T17:39:06.447Z,15.45
2018-01-11T17:41:34.743Z,13.10
2018-01-11T17:44:02.306Z,14.22
2018-01-11T17:46:30.599Z,12.28
2018-01-11T17:48:58.924Z,14.52
2018-01-11T17:51:27.231Z,10.92
2018-01-11T17:53:55.560Z,12.75
2018-01-11T17:56:23.864Z,14.53
2018-01-11T17:58:52.193Z,13.83
2018-01-11T18:01:20.496Z,12.60
2018-01-11T18:03:48.828Z,18.00
2018-01-11T18:06:17.127Z,12.95
2018-01-11T18:08:45.432Z,17.55
2018-01-11T18:11:13.759Z,15.73
2018-01-11T18:13:42.060Z,17.22
2018-01-11T18:16:10.384Z,45.50
2018-01-11T18:18:38.684Z,51.75
2018-01-11T18:21:07.016Z,58.95
2018-01-11T18:23:35.316Z,68.40
2018-01-11T18:26:03.640Z,52.50
2018-01-11T18:28:31.944Z,24.25
2018-01-11T18:31:00.281Z,21.17
2018-01-11T18:33:27.823Z,16.33
2018-01-11T18:35:56.153Z,14.77
2018-01-11T18:38:24.463Z,18.42
2018-01-11T18:40:52.020Z,21.10
2018-01-11T18:43:20.324Z,15.50
2018-01-11T18:45:48.647Z,16.45
2018-01-11T18:48:16.949Z,22.13
2018-01-11T18:50:45.272Z,23.35
2018-01-11T18:53:13.563Z,16.63
2018-01-11T18:55:41.888Z,18.52
2018-01-11T18:58:10.180Z,18.32
2018-01-11T19:00:38.532Z,18.17
2018-01-11T19:03:06.831Z,20.07
2018-01-11T19:05:35.161Z,20.22
2018-01-11T19:08:03.465Z,17.68
2018-01-11T19:10:31.797Z,18.70
2018-01-11T19:13:00.089Z,18.93
2018-01-11T19:15:28.416Z,20.92
2018-01-11T19:17:56.713Z,20.32
2018-01-11T19:20:25.040Z,18.02
2018-01-11T19:22:53.332Z,16.52
2018-01-11T19:25:21.657Z,18.02
2018-01-11T19:27:49.957Z,21.75
2018-01-11T19:30:18.301Z,20.23
2018-01-11T19:32:46.599Z,22.00
2018-01-11T19:35:14.934Z,24.52
2018-01-11T19:37:43.232Z,23.92
2018-01-11T19:40:11.562Z,22.03
2018-01-11T19:42:39.862Z,22.45
2018-01-11T19:45:08.185Z,22.15
2018-01-11T19:47:36.487Z,19.25
2018-01-11T19:50:04.816Z,24.15
2018-01-11T19:52:32.355Z,23.25
2018-01-11T19:55:00.680Z,20.60
2018-01-11T19:57:28.980Z,23.20
2018-01-11T19:59:57.310Z,25.28
2018-01-11T20:02:25.619Z,23.70
2018-01-11T20:04:53.962Z,20.42
2018-01-11T20:07:22.265Z,19.00
2018-01-11T20:09:50.555Z,22.48
2018-01-11T20:12:18.879Z,19.75
2018-01-11T20:14:47.180Z,21.03
2018-01-11T20:17:15.512Z,20.68
2018-01-11T20:19:43.813Z,17.90
2018-01-11T20:22:12.132Z,21.48
2018-01-11T20:24:40.427Z,22.30
2018-01-11T20:27:08.749Z,19.72
2018-01-11T20:29:37.041Z,18.30
2018-01-11T20:32:05.372Z,19.75
2018-01-11T20:34:33.667Z,21.27
2018-01-11T20:37:02.005Z,21.15
2018-01-11T20:39:30.303Z,23.10
2018-01-11T20:41:58.632Z,22.12
2018-01-11T20:44:26.933Z,20.80
2018-01-11T20:46:55.260Z,26.02
2018-01-11T20:49:23.565Z,24.68
2018-01-11T20:51:51.890Z,27.42
2018-01-11T20:54:19.429Z,23.47
2018-01-11T20:56:47.796Z,25.90
2018-01-11T20:59:16.081Z,31.03
2018-01-11T21:01:44.420Z,25.75
2018-01-11T21:04:11.956Z,25.85
2018-01-11T21:06:40.289Z,27.75
2018-01-11T21:09:08.584Z,35.08
2018-01-11T21:11:36.912Z,30.67
2018-01-11T21:14:05.216Z,30.27
2018-01-11T21:16:33.544Z,38.08
2018-01-11T21:19:01.835Z,34.17
2018-01-11T21:21:30.160Z,36.67
2018-01-11T21:23:58.449Z,37.68
2018-01-11T21:26:26.776Z,45.62
2018-01-11T21:28:55.072Z,26.42
2018-01-11T21:31:22.634Z,26.98
2018-01-11T21:33:50.932Z,30.60
2018-01-11T21:36:19.265Z,32.52
2018-01-11T21:38:47.559Z,29.05
2018-01-11T21:41:15.884Z,23.48
2018-01-11T21:43:44.172Z,29.03
2018-01-11T21:46:12.500Z,36.65
2018-01-11T21:48:40.792Z,38.55
2018-01-11T21:51:09.125Z,37.23
2018-01-11T21:53:37.420Z,37.30
2018-01-11T21:56:05.744Z,35.93
2018-01-11T21:58:34.044Z,37.23
2018-01-11T22:01:02.367Z,40.50
2018-01-11T22:03:30.662Z,32.82
2018-01-11T22:05:58.951Z,31.13
2018-01-11T22:08:27.273Z,38.98
2018-01-11T22:10:55.569Z,40.00
2018-01-11T22:13:23.893Z,37.17
2018-01-11T22:15:51.423Z,36.42
2018-01-11T22:18:19.760Z,41.65
2018-01-11T22:20:48.056Z,56.58
2018-01-11T22:23:16.379Z,38.92
2018-01-11T22:25:44.675Z,37.28
2018-01-11T22:28:13.001Z,43.43
2018-01-11T22:30:41.292Z,32.03
2018-01-11T22:33:09.616Z,39.55
2018-01-11T22:35:37.912Z,37.80
2018-01-11T22:38:06.240Z,36.30
2018-01-11T22:40:34.531Z,35.35
2018-01-11T22:43:02.853Z,32.27
2018-01-11T22:45:31.153Z,34.20
2018-01-11T22:47:59.480Z,28.62
2018-01-11T22:50:27.779Z,36.73
2018-01-11T22:52:56.105Z,27.75
2018-01-11T22:55:24.412Z,30.53
2018-01-11T22:57:52.740Z,29.57
2018-01-11T23:00:23.764Z,33.42
2018-01-11T23:02:52.084Z,33.67
2018-01-11T23:05:20.384Z,35.00
2018-01-11T23:07:48.704Z,29.43
2018-01-11T23:10:16.991Z,33.12
2018-01-11T23:12:45.313Z,32.48
2018-01-11T23:15:13.609Z,32.75
2018-01-11T23:17:41.923Z,32.10
2018-01-11T23:20:10.284Z,31.82
2018-01-11T23:22:38.609Z,42.28
2018-01-11T23:25:06.903Z,35.67
2018-01-11T23:27:35.232Z,37.75
2018-01-11T23:30:03.527Z,34.50
2018-01-11T23:32:31.856Z,34.97
2018-01-11T23:35:00.147Z,36.70
2018-01-11T23:37:28.471Z,33.33
2018-01-11T23:39:56.764Z,29.93
2018-01-11T23:42:25.093Z,35.87
2018-01-11T23:44:53.394Z,33.78
2018-01-11T23:47:21.711Z,33.98
2018-01-11T23:49:50.008Z,38.95
2018-01-11T23:52:18.332Z,32.28
2018-01-11T23:54:46.624Z,36.87
2018-01-11T23:57:14.948Z,32.22
2018-01-11T23:59:43.244Z,35.02
